createdAt,value
2023-04-09T00:00:47.792Z,45.10
2023-04-09T00:03:14.466Z,47.17
2023-04-09T00:05:41.257Z,45.28
2023-04-09T00:08:08.009Z,45.13
2023-04-09T00:10:34.822Z,46.65
2023-04-09T00:13:01.478Z,44.50
2023-04-09T00:15:31.482Z,45.58
2023-04-09T00:17:59.220Z,41.92
2023-04-09T00:20:25.973Z,42.65
2023-04-09T00:22:52.599Z,43.78
2023-04-09T00:25:20.107Z,41.45
2023-04-09T00:27:47.125Z,40.85
2023-04-09T00:30:13.916Z,40.35
2023-04-09T00:32:40.947Z,36.33
2023-04-09T00:35:08.503Z,39.22
2023-04-09T00:37:35.236Z,38.95
2023-04-09T00:40:01.882Z,37.33
2023-04-09T00:42:32.254Z,38.00
2023-04-09T00:44:59.333Z,37.28
2023-04-09T00:47:28.191Z,36.85
2023-04-09T00:49:55.614Z,34.97
2023-04-09T00:52:22.683Z,38.13
2023-04-09T00:54:50.404Z,37.00
2023-04-09T00:57:17.674Z,37.47
2023-04-09T00:59:44.667Z,37.50
2023-04-09T01:02:12.503Z,37.58
2023-04-09T01:04:41.285Z,38.20
2023-04-09T01:07:45.024Z,38.00
2023-04-09T01:10:30.577Z,35.65
2023-04-09T01:13:07.679Z,36.60
2023-04-09T01:15:38.925Z,36.25
2023-04-09T01:20:50.024Z,36.17
2023-04-09T01:23:25.999Z,39.33
2023-04-09T01:26:07.516Z,38.95
2023-04-09T01:28:45.600Z,36.42
2023-04-09T01:31:18.667Z,37.75
2023-04-09T01:33:46.125Z,36.67
2023-04-09T01:36:13.481Z,37.95
2023-04-09T01:38:42.295Z,39.33
2023-04-09T01:41:11.267Z,38.58
2023-04-09T01:43:38.433Z,38.95
2023-04-09T01:46:05.090Z,40.10
2023-04-09T01:48:32.909Z,39.97
2023-04-09T01:50:59.839Z,39.92
2023-04-09T01:53:30.981Z,41.25
2023-04-09T01:56:01.745Z,40.40
2023-04-09T01:58:28.732Z,39.25
2023-04-09T02:01:30.096Z,41.03
2023-04-09T02:03:58.950Z,38.90
2023-04-09T02:06:26.677Z,38.20
2023-04-09T02:08:54.023Z,39.03
2023-04-09T02:11:21.741Z,35.78
2023-04-09T02:13:49.743Z,37.00
2023-04-09T02:16:17.391Z,39.70
2023-04-09T02:18:44.068Z,37.55
2023-04-09T02:21:12.182Z,37.28
2023-04-09T02:23:38.848Z,38.35
2023-04-09T02:26:05.619Z,38.53
2023-04-09T02:28:32.193Z,39.70
2023-04-09T02:30:58.838Z,38.70
2023-04-09T02:33:25.450Z,39.72
2023-04-09T02:35:52.108Z,39.72
2023-04-09T02:38:19.330Z,39.42
2023-04-09T02:40:45.914Z,38.63
2023-04-09T02:43:12.565Z,39.58
2023-04-09T02:45:39.174Z,33.95
2023-04-09T02:48:05.952Z,36.80
2023-04-09T02:50:35.087Z,38.63
2023-04-09T02:53:02.372Z,36.40
2023-04-09T02:55:29.108Z,39.22
2023-04-09T02:57:55.962Z,38.28
2023-04-09T03:00:22.611Z,35.10
2023-04-09T03:02:49.767Z,36.10
2023-04-09T03:05:16.757Z,35.83
2023-04-09T03:07:43.381Z,37.42
2023-04-09T03:10:10.389Z,34.88
2023-04-09T03:12:36.980Z,36.15
2023-04-09T03:15:04.605Z,37.05
2023-04-09T03:17:32.126Z,34.53
2023-04-09T03:19:59.167Z,36.10
2023-04-09T03:22:37.689Z,37.45
2023-04-09T03:25:08.398Z,36.88
2023-04-09T03:27:35.951Z,35.92
2023-04-09T03:30:03.868Z,37.38
2023-04-09T03:32:39.174Z,36.47
2023-04-09T03:35:06.970Z,37.28
2023-04-09T03:37:33.714Z,33.95
2023-04-09T03:40:01.677Z,34.67
2023-04-09T03:42:30.397Z,36.08
2023-04-09T03:44:57.130Z,34.67
2023-04-09T03:47:34.033Z,36.63
2023-04-09T03:50:01.131Z,35.40
2023-04-09T03:55:05.904Z,35.13
2023-04-09T03:57:32.751Z,34.33
2023-04-09T03:59:59.438Z,35.03
2023-04-09T04:02:27.294Z,36.05
2023-04-09T04:05:00.360Z,35.70
2023-04-09T04:07:32.718Z,35.72
2023-04-09T04:10:07.156Z,34.22
2023-04-09T04:12:33.892Z,34.38
2023-04-09T04:15:07.788Z,34.42
2023-04-09T04:17:43.339Z,33.53
2023-04-09T04:20:21.507Z,33.63
2023-04-09T04:22:58.593Z,33.88
2023-04-09T04:25:26.439Z,32.95
2023-04-09T04:27:55.227Z,33.88
2023-04-09T04:30:26.676Z,35.30
2023-04-09T04:33:01.165Z,33.13
2023-04-09T04:35:32.856Z,34.25
2023-04-09T04:38:03.106Z,32.97
2023-04-09T04:40:31.945Z,32.85
2023-04-09T04:43:01.438Z,31.75
2023-04-09T04:45:29.576Z,32.50
2023-04-09T04:48:09.977Z,31.77
2023-04-09T04:50:37.052Z,33.88
2023-04-09T04:53:07.312Z,32.40
2023-04-09T04:55:42.326Z,32.72
2023-04-09T04:58:13.236Z,31.77
2023-04-09T05:00:47.370Z,31.83
2023-04-09T05:03:14.456Z,32.13
2023-04-09T05:06:01.516Z,30.42
2023-04-09T05:08:34.960Z,32.22
2023-04-09T05:11:01.741Z,31.65
2023-04-09T05:13:34.618Z,31.48
2023-04-09T05:16:04.410Z,30.70
2023-04-09T05:18:33.156Z,32.08
2023-04-09T05:20:59.828Z,32.55
2023-04-09T05:23:29.463Z,32.20
2023-04-09T05:25:56.132Z,30.95
2023-04-09T05:28:45.132Z,30.98
2023-04-09T05:31:16.622Z,31.95
2023-04-09T05:33:52.913Z,30.30
2023-04-09T05:36:24.292Z,29.20
2023-04-09T05:38:52.615Z,28.65
2023-04-09T05:41:19.538Z,29.02
2023-04-09T05:44:09.243Z,29.98
2023-04-09T05:46:38.792Z,30.80
2023-04-09T05:49:06.585Z,31.10
2023-04-09T05:51:34.989Z,30.48
2023-04-09T05:54:03.385Z,30.98
2023-04-09T05:56:34.171Z,30.65
2023-04-09T05:59:01.328Z,30.10
2023-04-09T06:01:27.994Z,30.48
2023-04-09T06:03:57.345Z,29.33
2023-04-09T06:06:25.078Z,29.88
2023-04-09T06:08:51.816Z,32.03
2023-04-09T06:11:18.445Z,31.58
2023-04-09T06:13:45.199Z,31.08
2023-04-09T06:16:11.871Z,30.35
2023-04-09T06:18:38.520Z,30.30
2023-04-09T06:21:06.436Z,31.60
2023-04-09T06:23:34.077Z,30.15
2023-04-09T06:26:01.386Z,30.55
2023-04-09T06:28:31.581Z,31.75
2023-04-09T06:30:58.964Z,29.48
2023-04-09T06:33:26.084Z,31.27
2023-04-09T06:35:52.781Z,29.27
2023-04-09T06:38:19.353Z,32.67
2023-04-09T06:40:46.273Z,32.88
2023-04-09T06:43:12.892Z,32.33
2023-04-09T06:45:50.331Z,32.38
2023-04-09T06:48:16.995Z,31.90
2023-04-09T06:50:44.503Z,35.63
2023-04-09T06:53:11.192Z,40.63
2023-04-09T06:55:37.822Z,35.40
2023-04-09T06:58:04.526Z,31.23
2023-04-09T07:00:31.234Z,33.60
2023-04-09T07:02:57.950Z,34.25
2023-04-09T07:05:24.700Z,34.97
2023-04-09T07:07:51.535Z,32.88
2023-04-09T07:10:18.246Z,32.78
2023-04-09T07:12:44.914Z,31.77
2023-04-09T07:15:11.526Z,33.65
2023-04-09T07:17:38.223Z,32.85
2023-04-09T07:20:05.534Z,33.13
2023-04-09T07:22:32.340Z,31.98
2023-04-09T07:24:59.129Z,31.55
2023-04-09T07:27:27.666Z,31.58
2023-04-09T07:29:58.407Z,33.80
2023-04-09T07:32:26.918Z,34.42
2023-04-09T07:34:54.697Z,35.35
2023-04-09T07:37:21.633Z,35.28
2023-04-09T07:39:49.335Z,35.50
2023-04-09T08:07:11.855Z,38.28
2023-04-09T08:09:38.496Z,36.13
2023-04-09T08:12:05.335Z,36.00
2023-04-09T08:14:32.035Z,34.45
2023-04-09T08:16:59.637Z,36.05
2023-04-09T08:19:26.285Z,37.25
2023-04-09T08:21:53.023Z,36.15
2023-04-09T08:24:19.665Z,36.95
2023-04-09T08:26:46.609Z,38.00
2023-04-09T08:29:15.408Z,37.38
2023-04-09T08:31:42.486Z,36.40
2023-04-09T08:34:09.277Z,36.88
2023-04-09T08:36:36.255Z,36.33
2023-04-09T08:39:03.503Z,34.70
2023-04-09T08:41:30.509Z,34.63
2023-04-09T08:43:59.225Z,32.55
2023-04-09T08:46:27.133Z,34.47
2023-04-09T08:48:54.230Z,34.08
2023-04-09T08:51:23.318Z,32.92
2023-04-09T08:53:56.629Z,31.70
2023-04-09T08:56:23.918Z,32.15
2023-04-09T08:58:51.158Z,32.38
2023-04-09T09:01:26.626Z,28.83
2023-04-09T09:04:06.706Z,28.83
2023-04-09T09:06:35.976Z,30.92
2023-04-09T09:09:06.162Z,30.27
2023-04-09T09:11:39.428Z,30.10
2023-04-09T09:14:07.895Z,26.55
2023-04-09T09:16:35.963Z,28.70
2023-04-09T09:19:03.059Z,28.90
2023-04-09T09:21:30.186Z,29.73
2023-04-09T09:23:57.353Z,27.13
2023-04-09T09:26:29.374Z,29.55
2023-04-09T09:28:58.926Z,30.27
2023-04-09T09:31:25.883Z,29.23
2023-04-09T09:33:53.228Z,28.63
2023-04-09T09:36:38.000Z,30.05
2023-04-09T09:39:09.930Z,28.60
2023-04-09T09:41:37.032Z,27.88
2023-04-09T09:44:04.632Z,29.65
2023-04-09T09:46:35.333Z,27.95
2023-04-09T09:49:02.011Z,28.08
2023-04-09T09:51:28.971Z,28.17
2023-04-09T09:53:57.290Z,28.58
2023-04-09T09:56:27.079Z,27.15
2023-04-09T09:59:06.242Z,27.55
2023-04-09T10:01:33.467Z,26.77
2023-04-09T10:04:01.517Z,25.63
2023-04-09T10:06:28.345Z,26.45
2023-04-09T10:08:58.521Z,27.50
2023-04-09T10:11:25.294Z,25.90
2023-04-09T10:13:57.152Z,27.58
2023-04-09T10:16:24.803Z,27.75
2023-04-09T10:18:51.933Z,28.58
2023-04-09T10:21:45.761Z,24.50
2023-04-09T10:24:12.692Z,24.20
2023-04-09T10:26:44.730Z,23.33
2023-04-09T10:29:14.627Z,24.75
2023-04-09T10:31:52.241Z,22.35
2023-04-09T10:34:28.659Z,23.30
2023-04-09T10:36:59.717Z,23.77
2023-04-09T10:39:28.460Z,23.40
2023-04-09T10:41:57.158Z,21.95
2023-04-09T10:44:27.709Z,24.70
2023-04-09T10:46:55.229Z,22.55
2023-04-09T10:49:26.425Z,21.50
2023-04-09T10:52:04.249Z,21.13
2023-04-09T10:54:33.932Z,22.73
2023-04-09T10:57:11.045Z,22.38
2023-04-09T10:59:41.175Z,20.98
2023-04-09T11:02:37.106Z,19.75
2023-04-09T11:05:31.237Z,19.65
2023-04-09T11:08:11.670Z,19.80
2023-04-09T11:10:41.102Z,20.65
2023-04-09T11:13:11.589Z,20.38
2023-04-09T11:15:38.785Z,19.15
2023-04-09T11:18:09.880Z,20.27
2023-04-09T11:20:36.813Z,19.02
2023-04-09T11:23:03.531Z,19.23
2023-04-09T11:25:34.166Z,18.27
2023-04-09T11:28:03.089Z,18.60
2023-04-09T11:30:31.052Z,19.15
2023-04-09T11:32:57.741Z,20.77
2023-04-09T11:35:24.919Z,18.83
2023-04-09T11:37:52.451Z,18.92
2023-04-09T11:40:24.710Z,20.92
2023-04-09T11:42:52.904Z,20.52
2023-04-09T11:45:21.613Z,18.13
2023-04-09T11:47:48.705Z,20.88
2023-04-09T11:50:16.419Z,21.83
2023-04-09T11:52:43.710Z,19.60
2023-04-09T11:55:10.948Z,19.88
2023-04-09T11:57:42.984Z,20.90
2023-04-09T12:00:17.704Z,21.13
2023-04-09T12:02:46.797Z,18.92
2023-04-09T12:05:23.047Z,19.55
2023-04-09T12:07:56.265Z,18.27
2023-04-09T12:12:53.426Z,20.15
2023-04-09T12:15:22.355Z,20.17
2023-04-09T12:17:54.930Z,20.30
2023-04-09T12:20:32.040Z,20.40
2023-04-09T12:23:03.579Z,19.52
2023-04-09T12:25:35.538Z,18.88
2023-04-09T12:28:03.891Z,19.52
2023-04-09T12:30:30.564Z,19.42
2023-04-09T12:32:57.296Z,19.98
2023-04-09T12:35:24.127Z,19.45
2023-04-09T12:37:51.513Z,19.33
2023-04-09T12:40:19.481Z,19.90
2023-04-09T12:42:46.608Z,18.92
2023-04-09T12:45:17.864Z,17.80
2023-04-09T12:47:45.425Z,21.58
2023-04-09T12:50:12.908Z,21.73
2023-04-09T12:52:39.681Z,19.48
2023-04-09T12:55:06.786Z,16.60
2023-04-09T12:57:33.852Z,16.70
2023-04-09T13:00:00.554Z,17.75
2023-04-09T13:02:27.356Z,17.20
2023-04-09T13:04:54.109Z,17.45
2023-04-09T13:07:20.849Z,15.88
2023-04-09T13:09:50.346Z,17.70
2023-04-09T13:12:17.402Z,17.52
2023-04-09T13:14:46.632Z,18.20
2023-04-09T13:17:13.459Z,18.08
2023-04-09T13:19:42.605Z,17.98
2023-04-09T13:22:09.509Z,17.30
2023-04-09T13:24:36.312Z,16.63
2023-04-09T13:27:09.163Z,18.48
2023-04-09T13:29:36.112Z,18.13
2023-04-09T13:32:07.108Z,18.15
2023-04-09T13:34:35.122Z,16.98
2023-04-09T13:37:05.047Z,16.23
2023-04-09T13:39:31.793Z,15.65
2023-04-09T13:41:58.626Z,16.65
2023-04-09T13:44:25.320Z,16.35
2023-04-09T13:46:52.114Z,16.58
2023-04-09T13:49:19.001Z,16.38
2023-04-09T13:51:46.085Z,15.57
2023-04-09T13:54:13.157Z,14.80
2023-04-09T13:56:39.831Z,13.82
2023-04-09T13:59:06.628Z,13.63
2023-04-09T14:01:34.131Z,13.73
2023-04-09T14:04:00.929Z,11.50
2023-04-09T14:06:28.005Z,12.15
2023-04-09T14:08:55.997Z,11.60
2023-04-09T14:11:22.835Z,11.70
2023-04-09T14:13:49.783Z,11.88
2023-04-09T14:16:16.517Z,11.38
2023-04-09T14:18:43.256Z,12.20
2023-04-09T14:21:10.463Z,11.55
2023-04-09T14:23:38.815Z,10.57
2023-04-09T14:26:06.117Z,12.18
2023-04-09T14:28:33.153Z,11.13
2023-04-09T14:30:59.887Z,11.05
2023-04-09T14:33:26.951Z,11.75
2023-04-09T14:35:53.693Z,11.57
2023-04-09T14:38:20.492Z,11.32
2023-04-09T14:40:47.224Z,11.70
2023-04-09T14:43:13.861Z,11.93
2023-04-09T14:45:40.544Z,10.27
2023-04-09T14:48:07.228Z,11.02
2023-04-09T14:50:34.017Z,10.98
2023-04-09T14:53:01.026Z,10.27
2023-04-09T14:55:27.816Z,10.52
2023-04-09T14:57:54.520Z,10.40
2023-04-09T15:00:21.608Z,10.82
2023-04-09T15:02:48.454Z,10.25
2023-04-09T15:05:15.251Z,11.30
2023-04-09T15:07:41.950Z,11.10
2023-04-09T15:10:09.089Z,10.25
2023-04-09T15:12:35.797Z,12.52
2023-04-09T15:15:06.042Z,11.20
2023-04-09T15:17:32.758Z,11.82
2023-04-09T15:19:59.796Z,11.52
2023-04-09T15:22:26.470Z,10.93
2023-04-09T15:24:53.679Z,11.00
2023-04-09T15:27:20.435Z,11.50
2023-04-09T15:29:47.080Z,10.45
2023-04-09T15:32:13.703Z,10.85
2023-04-09T15:34:40.362Z,11.65
2023-04-09T15:37:06.968Z,12.55
2023-04-09T15:39:34.137Z,11.18
2023-04-09T15:42:01.866Z,10.82
2023-04-09T15:44:28.715Z,11.95
2023-04-09T15:46:56.071Z,11.68
2023-04-09T15:49:23.007Z,11.50
2023-04-09T15:51:49.755Z,10.77
2023-04-09T15:54:16.610Z,11.68
2023-04-09T15:56:43.279Z,11.40
2023-04-09T15:59:10.019Z,11.73
2023-04-09T16:01:36.921Z,11.90
2023-04-09T16:04:04.837Z,12.00
2023-04-09T16:06:31.988Z,11.10
2023-04-09T16:08:58.704Z,12.57
2023-04-09T16:11:25.982Z,12.43
2023-04-09T16:13:52.719Z,11.80
2023-04-09T16:16:19.671Z,11.30
2023-04-09T16:18:46.414Z,12.80
2023-04-09T16:21:13.101Z,12.05
2023-04-09T16:23:39.930Z,11.13
2023-04-09T16:26:07.065Z,12.13
2023-04-09T16:28:33.899Z,12.65
2023-04-09T16:31:00.798Z,12.05
2023-04-09T16:33:27.579Z,12.60
2023-04-09T16:35:54.278Z,11.90
2023-04-09T16:38:20.991Z,11.98
2023-04-09T16:40:47.708Z,12.60
2023-04-09T16:43:14.371Z,12.68
2023-04-09T16:45:41.248Z,12.25
2023-04-09T16:48:12.238Z,11.35
2023-04-09T16:50:39.844Z,11.20
2023-04-09T16:53:06.592Z,12.13
2023-04-09T16:55:33.702Z,11.38
2023-04-09T16:58:00.367Z,11.20
2023-04-09T17:00:27.594Z,11.05
2023-04-09T17:02:55.660Z,11.68
2023-04-09T17:05:22.815Z,11.50
2023-04-09T17:07:49.472Z,10.60
2023-04-09T17:10:16.436Z,11.70
2023-04-09T17:12:44.354Z,11.60
2023-04-09T17:15:11.330Z,11.15
2023-04-09T17:17:38.275Z,11.75
2023-04-09T17:20:05.764Z,11.88
2023-04-09T17:22:32.584Z,11.55
2023-04-09T17:24:59.242Z,11.88
2023-04-09T17:27:26.021Z,12.32
2023-04-09T17:29:53.742Z,11.57
2023-04-09T17:32:20.589Z,11.45
2023-04-09T17:34:49.210Z,12.20
2023-04-09T17:37:15.807Z,12.73
2023-04-09T17:39:42.426Z,12.52
2023-04-09T17:42:11.643Z,11.93
2023-04-09T17:44:38.711Z,11.55
2023-04-09T17:47:07.462Z,11.48
2023-04-09T17:49:34.388Z,12.30
2023-04-09T17:52:01.259Z,12.68
2023-04-09T17:54:33.492Z,12.88
2023-04-09T17:57:01.593Z,12.40
2023-04-09T17:59:28.307Z,11.00
2023-04-09T18:01:55.327Z,11.38
2023-04-09T18:04:23.857Z,12.10
2023-04-09T18:06:51.101Z,11.98
2023-04-09T18:09:17.812Z,11.77
2023-04-09T18:11:44.884Z,11.80
2023-04-09T18:14:11.626Z,12.95
2023-04-09T18:16:39.309Z,14.52
2023-04-09T18:19:06.680Z,16.98
2023-04-09T18:21:36.448Z,18.80
2023-04-09T18:24:04.035Z,20.52
2023-04-09T18:26:31.277Z,23.35
2023-04-09T18:29:00.606Z,20.42
2023-04-09T18:31:27.982Z,20.15
2023-04-09T18:33:54.684Z,19.70
2023-04-09T18:36:21.385Z,19.27
2023-04-09T18:38:48.248Z,20.35
2023-04-09T18:41:24.878Z,19.05
2023-04-09T18:43:51.904Z,20.38
2023-04-09T18:46:18.952Z,24.17
2023-04-09T18:48:47.111Z,30.60
2023-04-09T18:51:14.499Z,30.10
2023-04-09T18:53:41.883Z,30.60
2023-04-09T18:56:08.657Z,29.90
2023-04-09T18:58:36.095Z,30.38
2023-04-09T19:01:12.128Z,27.85
2023-04-09T19:03:40.009Z,25.55
2023-04-09T19:06:11.411Z,24.10
2023-04-09T19:08:38.465Z,25.05
2023-04-09T19:11:06.399Z,29.73
2023-04-09T19:13:33.372Z,30.15
2023-04-09T19:16:00.183Z,30.08
2023-04-09T19:18:26.898Z,29.13
2023-04-09T19:20:53.525Z,28.38
2023-04-09T19:23:20.329Z,27.35
2023-04-09T19:25:55.076Z,26.40
2023-04-09T19:28:22.389Z,27.67
2023-04-09T19:30:52.280Z,27.42
2023-04-09T19:33:23.277Z,29.40
2023-04-09T19:35:50.988Z,36.38
2023-04-09T19:38:18.926Z,37.90
2023-04-09T19:40:45.945Z,42.40
2023-04-09T19:43:13.136Z,47.83
2023-04-09T19:45:40.476Z,44.08
2023-04-09T19:48:07.387Z,41.33
2023-04-09T19:50:38.099Z,42.65
2023-04-09T19:53:05.983Z,38.72
2023-04-09T19:55:33.616Z,35.55
2023-04-09T19:58:00.341Z,31.17
2023-04-09T20:00:28.189Z,27.60
2023-04-09T20:02:55.780Z,24.55
2023-04-09T20:05:22.912Z,23.95
2023-04-09T20:07:50.475Z,21.95
2023-04-09T20:10:17.086Z,22.80
2023-04-09T20:12:47.477Z,22.30
2023-04-09T20:15:14.192Z,24.48
2023-04-09T20:17:41.911Z,27.30
2023-04-09T20:20:08.972Z,23.30
2023-04-09T20:22:35.545Z,23.83
2023-04-09T20:25:02.350Z,23.50
2023-04-09T20:27:29.117Z,24.45
2023-04-09T20:29:56.134Z,24.83
2023-04-09T20:32:22.883Z,25.13
2023-04-09T20:34:49.669Z,27.33
2023-04-09T20:37:16.288Z,27.65
2023-04-09T20:39:42.938Z,29.52
2023-04-09T20:42:09.556Z,31.27
2023-04-09T20:44:36.217Z,32.10
2023-04-09T20:47:02.820Z,30.02
2023-04-09T20:49:29.521Z,32.13
2023-04-09T20:51:56.812Z,30.25
2023-04-09T20:54:23.607Z,33.00
2023-04-09T20:56:50.317Z,33.65
2023-04-09T20:59:17.265Z,33.95
2023-04-09T21:01:44.150Z,33.92
2023-04-09T21:04:11.316Z,32.55
2023-04-09T21:06:38.002Z,34.60
2023-04-09T21:09:04.710Z,37.25
2023-04-09T21:11:31.351Z,40.28
2023-04-09T21:13:58.322Z,41.80
2023-04-09T21:16:27.251Z,39.17
2023-04-09T21:18:54.242Z,36.15
2023-04-09T21:21:21.438Z,32.47
2023-04-09T21:23:48.093Z,29.90
2023-04-09T21:26:15.148Z,27.27
2023-04-09T21:28:41.872Z,27.38
2023-04-09T21:31:11.157Z,26.38
2023-04-09T21:33:39.231Z,25.83
2023-04-09T21:36:07.941Z,28.20
2023-04-09T21:38:34.893Z,26.38
2023-04-09T21:41:01.849Z,27.00
2023-04-09T21:43:29.193Z,25.90
2023-04-09T21:45:56.825Z,26.17
2023-04-09T21:48:23.518Z,28.45
2023-04-09T21:50:50.202Z,27.67
2023-04-09T21:53:17.126Z,28.00
2023-04-09T21:55:43.906Z,29.65
2023-04-09T21:58:11.990Z,31.08
2023-04-09T22:00:38.722Z,31.63
2023-04-09T22:03:05.502Z,30.95
2023-04-09T22:05:34.239Z,30.13
2023-04-09T22:08:01.101Z,29.20
2023-04-09T22:10:27.952Z,31.25
2023-04-09T22:12:54.600Z,31.55
2023-04-09T22:15:21.958Z,30.95
2023-04-09T22:17:48.779Z,31.98
2023-04-09T22:20:15.495Z,32.55
2023-04-09T22:22:42.468Z,31.75
2023-04-09T22:25:11.160Z,33.08
2023-04-09T22:27:38.164Z,32.03
2023-04-09T22:30:05.692Z,34.00
2023-04-09T22:32:33.501Z,33.55
2023-04-09T22:35:00.283Z,34.15
2023-04-09T22:37:27.888Z,34.60
2023-04-09T22:39:54.711Z,36.40
2023-04-09T22:42:21.512Z,35.67
2023-04-09T22:44:48.207Z,35.42
2023-04-09T22:47:14.866Z,35.47
2023-04-09T22:49:41.525Z,36.22
2023-04-09T22:52:08.405Z,35.00
2023-04-09T22:54:35.040Z,35.67
2023-04-09T22:57:01.930Z,36.75
2023-04-09T22:59:37.216Z,36.42
2023-04-09T23:02:06.353Z,36.90
2023-04-09T23:04:34.764Z,36.70
2023-04-09T23:07:02.257Z,37.38
2023-04-09T23:09:30.811Z,36.55
2023-04-09T23:11:57.590Z,36.72
2023-04-09T23:14:24.214Z,35.78
2023-04-09T23:16:50.886Z,36.88
2023-04-09T23:19:17.497Z,37.83
2023-04-09T23:21:44.078Z,37.92
2023-04-09T23:24:10.863Z,36.38
2023-04-09T23:26:37.485Z,38.05
2023-04-09T23:29:04.190Z,36.92
2023-04-09T23:31:31.020Z,38.67
2023-04-09T23:33:57.619Z,38.78
2023-04-09T23:36:24.336Z,39.42
2023-04-09T23:38:51.240Z,39.33
2023-04-09T23:41:17.902Z,38.28
2023-04-09T23:43:44.524Z,40.80
2023-04-09T23:46:11.198Z,40.60
2023-04-09T23:48:37.823Z,39.55
2023-04-09T23:51:04.738Z,40.97
2023-04-09T23:53:31.357Z,41.95
2023-04-09T23:55:58.580Z,41.13
2023-04-09T23:58:25.434Z,41.83
